sensor_id;sensor_type;location;lat;lon;timestamp;P1;durP1;ratioP1;P2;durP2;ratioP2
48040;SDS011;33815;48.386;11.738;2022-09-14T00:01:19;4.15;;;3.38;;
48040;SDS011;33815;48.386;11.738;2022-09-14T00:03:46;3.92;;;3.15;;
48040;SDS011;33815;48.386;11.738;2022-09-14T00:06:13;3.35;;;2.85;;
48040;SDS011;33815;48.386;11.738;2022-09-14T00:08:39;5.47;;;2.80;;
48040;SDS011;33815;48.386;11.738;2022-09-14T00:11:06;3.25;;;2.95;;
48040;SDS011;33815;48.386;11.738;2022-09-14T00:13:37;4.13;;;3.15;;
48040;SDS011;33815;48.386;11.738;2022-09-14T00:16:05;4.80;;;3.63;;
48040;SDS011;33815;48.386;11.738;2022-09-14T00:18:33;3.50;;;3.20;;
48040;SDS011;33815;48.386;11.738;2022-09-14T00:21:03;4.72;;;3.47;;
48040;SDS011;33815;48.386;11.738;2022-09-14T00:23:30;4.07;;;2.80;;
48040;SDS011;33815;48.386;11.738;2022-09-14T00:26:01;4.75;;;3.45;;
48040;SDS011;33815;48.386;11.738;2022-09-14T00:28:30;3.78;;;2.83;;
48040;SDS011;33815;48.386;11.738;2022-09-14T00:30:55;3.72;;;3.42;;
48040;SDS011;33815;48.386;11.738;2022-09-14T00:33:21;5.10;;;3.85;;
48040;SDS011;33815;48.386;11.738;2022-09-14T00:35:46;4.97;;;3.67;;
48040;SDS011;33815;48.386;11.738;2022-09-14T00:38:11;3.37;;;3.07;;
48040;SDS011;33815;48.386;11.738;2022-09-14T00:40:36;8.98;;;3.30;;
48040;SDS011;33815;48.386;11.738;2022-09-14T00:43:04;3.90;;;3.30;;
48040;SDS011;33815;48.386;11.738;2022-09-14T00:45:37;6.35;;;3.10;;
48040;SDS011;33815;48.386;11.738;2022-09-14T00:48:03;2.93;;;2.67;;
48040;SDS011;33815;48.386;11.738;2022-09-14T00:50:28;2.72;;;2.53;;
48040;SDS011;33815;48.386;11.738;2022-09-14T00:52:56;6.00;;;3.30;;
48040;SDS011;33815;48.386;11.738;2022-09-14T00:55:21;3.92;;;3.03;;
48040;SDS011;33815;48.386;11.738;2022-09-14T00:57:48;4.32;;;3.03;;
48040;SDS011;33815;48.386;11.738;2022-09-14T01:00:18;4.65;;;3.03;;
48040;SDS011;33815;48.386;11.738;2022-09-14T01:02:47;3.83;;;2.63;;
48040;SDS011;33815;48.386;11.738;2022-09-14T01:05:13;2.80;;;2.60;;
48040;SDS011;33815;48.386;11.738;2022-09-14T01:07:51;4.22;;;2.80;;
48040;SDS011;33815;48.386;11.738;2022-09-14T01:13:36;6.30;;;3.05;;
48040;SDS011;33815;48.386;11.738;2022-09-14T01:16:44;5.63;;;3.05;;
48040;SDS011;33815;48.386;11.738;2022-09-14T01:22:34;3.33;;;3.03;;
48040;SDS011;33815;48.386;11.738;2022-09-14T01:25:12;3.13;;;2.85;;
48040;SDS011;33815;48.386;11.738;2022-09-14T01:27:56;2.83;;;2.50;;
48040;SDS011;33815;48.386;11.738;2022-09-14T01:30:27;6.43;;;3.60;;
48040;SDS011;33815;48.386;11.738;2022-09-14T01:33:02;3.03;;;2.55;;
48040;SDS011;33815;48.386;11.738;2022-09-14T01:35:37;3.25;;;2.95;;
48040;SDS011;33815;48.386;11.738;2022-09-14T01:38:07;3.83;;;3.05;;
48040;SDS011;33815;48.386;11.738;2022-09-14T01:40:41;3.78;;;3.33;;
48040;SDS011;33815;48.386;11.738;2022-09-14T01:43:14;3.55;;;3.10;;
48040;SDS011;33815;48.386;11.738;2022-09-14T01:45:49;4.97;;;3.80;;
48040;SDS011;33815;48.386;11.738;2022-09-14T01:48:19;7.03;;;3.35;;
48040;SDS011;33815;48.386;11.738;2022-09-14T01:50:51;3.97;;;3.13;;
48040;SDS011;33815;48.386;11.738;2022-09-14T01:53:31;4.35;;;3.90;;
48040;SDS011;33815;48.386;11.738;2022-09-14T01:56:17;4.60;;;4.15;;
48040;SDS011;33815;48.386;11.738;2022-09-14T01:58:47;5.22;;;3.10;;
48040;SDS011;33815;48.386;11.738;2022-09-14T02:01:19;7.30;;;4.03;;
48040;SDS011;33815;48.386;11.738;2022-09-14T02:03:52;4.55;;;3.42;;
48040;SDS011;33815;48.386;11.738;2022-09-14T02:06:23;3.63;;;3.30;;
48040;SDS011;33815;48.386;11.738;2022-09-14T02:08:55;6.10;;;4.25;;
48040;SDS011;33815;48.386;11.738;2022-09-14T02:11:21;5.53;;;4.70;;
48040;SDS011;33815;48.386;11.738;2022-09-14T02:13:46;5.27;;;3.80;;
48040;SDS011;33815;48.386;11.738;2022-09-14T02:16:11;4.82;;;3.58;;
48040;SDS011;33815;48.386;11.738;2022-09-14T02:18:37;4.10;;;3.70;;
48040;SDS011;33815;48.386;11.738;2022-09-14T02:21:05;3.95;;;3.58;;
48040;SDS011;33815;48.386;11.738;2022-09-14T02:23:36;5.55;;;4.20;;
48040;SDS011;33815;48.386;11.738;2022-09-14T02:26:02;4.60;;;4.18;;
48040;SDS011;33815;48.386;11.738;2022-09-14T02:28:28;4.90;;;4.50;;
48040;SDS011;33815;48.386;11.738;2022-09-14T02:30:54;3.90;;;3.60;;
48040;SDS011;33815;48.386;11.738;2022-09-14T02:33:58;5.15;;;4.00;;
48040;SDS011;33815;48.386;11.738;2022-09-14T02:39:12;9.15;;;4.25;;
48040;SDS011;33815;48.386;11.738;2022-09-14T02:42:07;4.45;;;4.05;;
48040;SDS011;33815;48.386;11.738;2022-09-14T02:47:10;3.75;;;3.35;;
48040;SDS011;33815;48.386;11.738;2022-09-14T02:52:17;4.18;;;2.92;;
48040;SDS011;33815;48.386;11.738;2022-09-14T02:54:56;5.40;;;3.78;;
48040;SDS011;33815;48.386;11.738;2022-09-14T02:57:27;3.70;;;3.40;;
48040;SDS011;33815;48.386;11.738;2022-09-14T02:59:52;3.50;;;3.20;;
48040;SDS011;33815;48.386;11.738;2022-09-14T03:02:18;3.70;;;3.40;;
48040;SDS011;33815;48.386;11.738;2022-09-14T03:04:44;8.68;;;4.38;;
48040;SDS011;33815;48.386;11.738;2022-09-14T03:07:09;8.53;;;5.77;;
48040;SDS011;33815;48.386;11.738;2022-09-14T03:09:34;6.73;;;5.00;;
48040;SDS011;33815;48.386;11.738;2022-09-14T03:11:59;5.33;;;4.43;;
48040;SDS011;33815;48.386;11.738;2022-09-14T03:14:25;5.10;;;4.13;;
48040;SDS011;33815;48.386;11.738;2022-09-14T03:16:50;7.00;;;4.47;;
48040;SDS011;33815;48.386;11.738;2022-09-14T03:19:15;6.18;;;5.35;;
48040;SDS011;33815;48.386;11.738;2022-09-14T03:21:41;10.52;;;5.72;;
48040;SDS011;33815;48.386;11.738;2022-09-14T03:24:06;8.40;;;6.60;;
48040;SDS011;33815;48.386;11.738;2022-09-14T03:26:32;8.75;;;6.43;;
48040;SDS011;33815;48.386;11.738;2022-09-14T03:29:00;6.53;;;5.13;;
48040;SDS011;33815;48.386;11.738;2022-09-14T03:31:26;6.68;;;5.95;;
48040;SDS011;33815;48.386;11.738;2022-09-14T03:33:55;6.60;;;5.75;;
48040;SDS011;33815;48.386;11.738;2022-09-14T03:36:22;9.07;;;5.90;;
48040;SDS011;33815;48.386;11.738;2022-09-14T03:38:50;7.65;;;5.47;;
48040;SDS011;33815;48.386;11.738;2022-09-14T03:41:18;5.50;;;5.00;;
48040;SDS011;33815;48.386;11.738;2022-09-14T03:43:44;6.40;;;4.72;;
48040;SDS011;33815;48.386;11.738;2022-09-14T03:46:13;6.72;;;5.13;;
48040;SDS011;33815;48.386;11.738;2022-09-14T03:48:41;7.45;;;6.18;;
48040;SDS011;33815;48.386;11.738;2022-09-14T03:51:07;8.93;;;5.22;;
48040;SDS011;33815;48.386;11.738;2022-09-14T03:53:34;8.15;;;6.00;;
48040;SDS011;33815;48.386;11.738;2022-09-14T03:56:05;7.68;;;5.85;;
48040;SDS011;33815;48.386;11.738;2022-09-14T03:58:32;6.53;;;5.82;;
48040;SDS011;33815;48.386;11.738;2022-09-14T04:01:02;6.67;;;5.93;;
48040;SDS011;33815;48.386;11.738;2022-09-14T04:03:31;9.75;;;6.13;;
48040;SDS011;33815;48.386;11.738;2022-09-14T04:05:57;6.70;;;6.00;;
48040;SDS011;33815;48.386;11.738;2022-09-14T04:08:23;8.30;;;6.40;;
48040;SDS011;33815;48.386;11.738;2022-09-14T04:10:48;6.95;;;6.13;;
48040;SDS011;33815;48.386;11.738;2022-09-14T04:13:14;15.02;;;8.13;;
48040;SDS011;33815;48.386;11.738;2022-09-14T04:15:39;7.05;;;6.35;;
48040;SDS011;33815;48.386;11.738;2022-09-14T04:18:04;10.27;;;6.47;;
48040;SDS011;33815;48.386;11.738;2022-09-14T04:20:29;7.97;;;6.47;;
48040;SDS011;33815;48.386;11.738;2022-09-14T04:22:55;8.43;;;6.43;;
48040;SDS011;33815;48.386;11.738;2022-09-14T04:25:20;8.70;;;7.20;;
48040;SDS011;33815;48.386;11.738;2022-09-14T04:27:47;7.72;;;6.80;;
48040;SDS011;33815;48.386;11.738;2022-09-14T04:30:12;12.65;;;7.03;;
48040;SDS011;33815;48.386;11.738;2022-09-14T04:32:38;6.25;;;5.63;;
48040;SDS011;33815;48.386;11.738;2022-09-14T04:35:03;9.43;;;6.73;;
48040;SDS011;33815;48.386;11.738;2022-09-14T04:37:31;7.55;;;6.63;;
48040;SDS011;33815;48.386;11.738;2022-09-14T04:39:57;10.30;;;6.70;;
48040;SDS011;33815;48.386;11.738;2022-09-14T04:42:23;7.53;;;6.40;;
48040;SDS011;33815;48.386;11.738;2022-09-14T04:44:48;8.48;;;6.28;;
48040;SDS011;33815;48.386;11.738;2022-09-14T04:47:13;5.97;;;5.37;;
48040;SDS011;33815;48.386;11.738;2022-09-14T04:49:38;7.50;;;6.43;;
48040;SDS011;33815;48.386;11.738;2022-09-14T04:52:04;8.53;;;5.93;;
48040;SDS011;33815;48.386;11.738;2022-09-14T04:54:29;6.22;;;5.60;;
48040;SDS011;33815;48.386;11.738;2022-09-14T04:56:54;7.70;;;5.70;;
48040;SDS011;33815;48.386;11.738;2022-09-14T04:59:19;6.50;;;5.67;;
48040;SDS011;33815;48.386;11.738;2022-09-14T05:01:45;5.43;;;4.93;;
48040;SDS011;33815;48.386;11.738;2022-09-14T05:04:14;8.27;;;5.18;;
48040;SDS011;33815;48.386;11.738;2022-09-14T05:06:39;7.30;;;6.00;;
48040;SDS011;33815;48.386;11.738;2022-09-14T05:09:09;8.48;;;6.20;;
48040;SDS011;33815;48.386;11.738;2022-09-14T05:11:37;8.30;;;6.10;;
48040;SDS011;33815;48.386;11.738;2022-09-14T05:14:03;9.00;;;6.88;;
48040;SDS011;33815;48.386;11.738;2022-09-14T05:16:36;10.40;;;8.50;;
48040;SDS011;33815;48.386;11.738;2022-09-14T05:19:06;11.13;;;6.53;;
48040;SDS011;33815;48.386;11.738;2022-09-14T05:21:35;7.30;;;5.78;;
48040;SDS011;33815;48.386;11.738;2022-09-14T05:24:03;9.30;;;5.65;;
48040;SDS011;33815;48.386;11.738;2022-09-14T05:26:36;8.20;;;5.97;;
48040;SDS011;33815;48.386;11.738;2022-09-14T05:29:02;6.38;;;5.78;;
48040;SDS011;33815;48.386;11.738;2022-09-14T05:31:28;6.40;;;5.68;;
48040;SDS011;33815;48.386;11.738;2022-09-14T05:33:54;6.68;;;5.43;;
48040;SDS011;33815;48.386;11.738;2022-09-14T05:36:20;7.27;;;6.53;;
48040;SDS011;33815;48.386;11.738;2022-09-14T05:38:45;9.50;;;7.10;;
48040;SDS011;33815;48.386;11.738;2022-09-14T05:41:11;8.27;;;7.00;;
48040;SDS011;33815;48.386;11.738;2022-09-14T05:43:37;7.85;;;6.78;;
48040;SDS011;33815;48.386;11.738;2022-09-14T05:46:04;8.27;;;6.90;;
48040;SDS011;33815;48.386;11.738;2022-09-14T05:48:46;8.15;;;6.72;;
48040;SDS011;33815;48.386;11.738;2022-09-14T05:51:15;6.35;;;5.75;;
48040;SDS011;33815;48.386;11.738;2022-09-14T05:53:48;6.40;;;5.80;;
48040;SDS011;33815;48.386;11.738;2022-09-14T05:56:15;7.75;;;6.03;;
48040;SDS011;33815;48.386;11.738;2022-09-14T05:58:41;7.72;;;6.15;;
48040;SDS011;33815;48.386;11.738;2022-09-14T06:01:08;6.97;;;6.28;;
48040;SDS011;33815;48.386;11.738;2022-09-14T06:03:41;7.53;;;6.47;;
48040;SDS011;33815;48.386;11.738;2022-09-14T06:06:08;11.27;;;7.03;;
48040;SDS011;33815;48.386;11.738;2022-09-14T06:08:35;7.05;;;6.20;;
48040;SDS011;33815;48.386;11.738;2022-09-14T06:11:02;6.82;;;5.15;;
48040;SDS011;33815;48.386;11.738;2022-09-14T06:13:29;8.25;;;6.20;;
48040;SDS011;33815;48.386;11.738;2022-09-14T06:15:54;6.37;;;5.77;;
48040;SDS011;33815;48.386;11.738;2022-09-14T06:18:20;8.23;;;7.28;;
48040;SDS011;33815;48.386;11.738;2022-09-14T06:20:49;8.80;;;7.63;;
48040;SDS011;33815;48.386;11.738;2022-09-14T06:23:15;13.13;;;8.18;;
48040;SDS011;33815;48.386;11.738;2022-09-14T06:25:40;9.30;;;6.90;;
48040;SDS011;33815;48.386;11.738;2022-09-14T06:28:06;8.13;;;6.33;;
48040;SDS011;33815;48.386;11.738;2022-09-14T06:30:31;10.00;;;6.70;;
48040;SDS011;33815;48.386;11.738;2022-09-14T06:32:56;8.47;;;7.20;;
48040;SDS011;33815;48.386;11.738;2022-09-14T06:35:21;7.07;;;6.27;;
48040;SDS011;33815;48.386;11.738;2022-09-14T06:37:47;9.33;;;7.40;;
48040;SDS011;33815;48.386;11.738;2022-09-14T06:40:12;8.85;;;5.95;;
48040;SDS011;33815;48.386;11.738;2022-09-14T06:42:37;6.57;;;5.93;;
48040;SDS011;33815;48.386;11.738;2022-09-14T06:45:02;5.67;;;5.10;;
48040;SDS011;33815;48.386;11.738;2022-09-14T06:47:31;4.50;;;4.13;;
48040;SDS011;33815;48.386;11.738;2022-09-14T06:49:57;7.40;;;4.50;;
48040;SDS011;33815;48.386;11.738;2022-09-14T06:52:23;8.15;;;4.28;;
48040;SDS011;33815;48.386;11.738;2022-09-14T06:54:48;4.78;;;3.70;;
48040;SDS011;33815;48.386;11.738;2022-09-14T06:57:13;7.50;;;3.67;;
48040;SDS011;33815;48.386;11.738;2022-09-14T06:59:39;4.20;;;3.50;;
48040;SDS011;33815;48.386;11.738;2022-09-14T07:02:05;4.88;;;3.00;;
48040;SDS011;33815;48.386;11.738;2022-09-14T07:04:30;6.63;;;4.07;;
48040;SDS011;33815;48.386;11.738;2022-09-14T07:06:56;6.80;;;3.83;;
48040;SDS011;33815;48.386;11.738;2022-09-14T07:09:21;4.70;;;3.80;;
48040;SDS011;33815;48.386;11.738;2022-09-14T07:11:46;4.50;;;3.70;;
48040;SDS011;33815;48.386;11.738;2022-09-14T07:14:11;5.53;;;3.03;;
48040;SDS011;33815;48.386;11.738;2022-09-14T07:16:37;4.47;;;3.70;;
48040;SDS011;33815;48.386;11.738;2022-09-14T07:19:09;3.53;;;3.10;;
48040;SDS011;33815;48.386;11.738;2022-09-14T07:21:36;6.50;;;3.53;;
48040;SDS011;33815;48.386;11.738;2022-09-14T07:24:01;5.13;;;3.17;;
48040;SDS011;33815;48.386;11.738;2022-09-14T07:26:29;4.75;;;3.83;;
48040;SDS011;33815;48.386;11.738;2022-09-14T07:28:57;3.50;;;2.78;;
48040;SDS011;33815;48.386;11.738;2022-09-14T07:31:32;4.13;;;3.42;;
48040;SDS011;33815;48.386;11.738;2022-09-14T07:34:05;3.55;;;3.00;;
48040;SDS011;33815;48.386;11.738;2022-09-14T07:36:31;6.30;;;3.00;;
48040;SDS011;33815;48.386;11.738;2022-09-14T07:38:58;3.90;;;3.05;;
48040;SDS011;33815;48.386;11.738;2022-09-14T07:41:24;4.17;;;3.40;;
48040;SDS011;33815;48.386;11.738;2022-09-14T07:43:52;4.80;;;3.40;;
48040;SDS011;33815;48.386;11.738;2022-09-14T07:46:24;6.95;;;3.30;;
48040;SDS011;33815;48.386;11.738;2022-09-14T07:48:53;3.20;;;2.90;;
48040;SDS011;33815;48.386;11.738;2022-09-14T07:51:20;5.72;;;2.50;;
48040;SDS011;33815;48.386;11.738;2022-09-14T07:53:46;4.63;;;2.85;;
48040;SDS011;33815;48.386;11.738;2022-09-14T07:56:11;3.78;;;2.47;;
48040;SDS011;33815;48.386;11.738;2022-09-14T07:58:38;4.05;;;2.70;;
48040;SDS011;33815;48.386;11.738;2022-09-14T08:01:04;3.78;;;2.13;;
48040;SDS011;33815;48.386;11.738;2022-09-14T08:03:35;4.82;;;2.20;;
48040;SDS011;33815;48.386;11.738;2022-09-14T08:06:03;2.33;;;2.00;;
48040;SDS011;33815;48.386;11.738;2022-09-14T08:08:40;1.85;;;1.65;;
48040;SDS011;33815;48.386;11.738;2022-09-14T08:11:09;2.33;;;1.67;;
48040;SDS011;33815;48.386;11.738;2022-09-14T08:13:47;2.85;;;1.75;;
48040;SDS011;33815;48.386;11.738;2022-09-14T08:16:14;8.27;;;1.60;;
48040;SDS011;33815;48.386;11.738;2022-09-14T08:18:39;2.72;;;1.75;;
48040;SDS011;33815;48.386;11.738;2022-09-14T08:21:06;1.63;;;1.50;;
48040;SDS011;33815;48.386;11.738;2022-09-14T08:23:36;1.35;;;1.27;;
48040;SDS011;33815;48.386;11.738;2022-09-14T08:26:06;2.53;;;1.00;;
48040;SDS011;33815;48.386;11.738;2022-09-14T08:28:33;4.28;;;1.42;;
48040;SDS011;33815;48.386;11.738;2022-09-14T08:31:01;3.70;;;1.30;;
48040;SDS011;33815;48.386;11.738;2022-09-14T08:33:31;1.60;;;1.08;;
48040;SDS011;33815;48.386;11.738;2022-09-14T08:36:00;1.80;;;1.40;;
48040;SDS011;33815;48.386;11.738;2022-09-14T08:38:26;2.42;;;1.52;;
48040;SDS011;33815;48.386;11.738;2022-09-14T08:40:52;3.50;;;1.90;;
48040;SDS011;33815;48.386;11.738;2022-09-14T08:43:18;2.63;;;1.25;;
48040;SDS011;33815;48.386;11.738;2022-09-14T08:45:47;3.45;;;1.60;;
48040;SDS011;33815;48.386;11.738;2022-09-14T08:51:13;1.95;;;1.20;;
48040;SDS011;33815;48.386;11.738;2022-09-14T08:53:40;2.42;;;1.00;;
48040;SDS011;33815;48.386;11.738;2022-09-14T08:56:16;0.90;;;0.90;;
48040;SDS011;33815;48.386;11.738;2022-09-14T09:02:00;5.03;;;1.10;;
48040;SDS011;33815;48.386;11.738;2022-09-14T09:04:51;2.70;;;1.25;;
48040;SDS011;33815;48.386;11.738;2022-09-14T09:09:56;4.47;;;1.45;;
48040;SDS011;33815;48.386;11.738;2022-09-14T09:12:23;4.45;;;1.33;;
48040;SDS011;33815;48.386;11.738;2022-09-14T09:14:58;2.55;;;1.35;;
48040;SDS011;33815;48.386;11.738;2022-09-14T09:17:37;2.58;;;1.42;;
48040;SDS011;33815;48.386;11.738;2022-09-14T09:25:35;1.38;;;1.13;;
48040;SDS011;33815;48.386;11.738;2022-09-14T09:28:24;2.08;;;1.25;;
48040;SDS011;33815;48.386;11.738;2022-09-14T09:30:52;3.83;;;1.33;;
48040;SDS011;33815;48.386;11.738;2022-09-14T09:33:21;1.58;;;1.08;;
48040;SDS011;33815;48.386;11.738;2022-09-14T09:35:49;2.92;;;1.30;;
48040;SDS011;33815;48.386;11.738;2022-09-14T09:38:17;2.35;;;1.08;;
48040;SDS011;33815;48.386;11.738;2022-09-14T09:40:49;1.35;;;1.25;;
48040;SDS011;33815;48.386;11.738;2022-09-14T09:43:18;1.00;;;0.98;;
48040;SDS011;33815;48.386;11.738;2022-09-14T09:45:48;3.25;;;1.02;;
48040;SDS011;33815;48.386;11.738;2022-09-14T09:48:18;4.38;;;0.93;;
48040;SDS011;33815;48.386;11.738;2022-09-14T09:51:00;2.55;;;1.10;;
48040;SDS011;33815;48.386;11.738;2022-09-14T09:53:27;2.42;;;1.33;;
48040;SDS011;33815;48.386;11.738;2022-09-14T09:55:53;1.10;;;0.95;;
48040;SDS011;33815;48.386;11.738;2022-09-14T09:58:29;2.58;;;1.35;;
48040;SDS011;33815;48.386;11.738;2022-09-14T10:01:06;1.20;;;0.77;;
48040;SDS011;33815;48.386;11.738;2022-09-14T10:03:43;2.33;;;0.88;;
48040;SDS011;33815;48.386;11.738;2022-09-14T10:06:20;2.17;;;1.10;;
48040;SDS011;33815;48.386;11.738;2022-09-14T10:08:45;1.25;;;1.15;;
48040;SDS011;33815;48.386;11.738;2022-09-14T10:11:27;1.88;;;0.80;;
48040;SDS011;33815;48.386;11.738;2022-09-14T10:13:56;1.20;;;0.93;;
48040;SDS011;33815;48.386;11.738;2022-09-14T10:16:21;3.45;;;1.17;;
48040;SDS011;33815;48.386;11.738;2022-09-14T10:18:49;1.65;;;1.05;;
48040;SDS011;33815;48.386;11.738;2022-09-14T10:21:17;3.20;;;1.10;;
48040;SDS011;33815;48.386;11.738;2022-09-14T10:23:44;1.17;;;0.93;;
48040;SDS011;33815;48.386;11.738;2022-09-14T10:28:39;2.85;;;1.23;;
48040;SDS011;33815;48.386;11.738;2022-09-14T10:31:07;1.85;;;0.98;;
48040;SDS011;33815;48.386;11.738;2022-09-14T10:33:36;1.63;;;0.93;;
48040;SDS011;33815;48.386;11.738;2022-09-14T10:38:38;1.30;;;1.05;;
48040;SDS011;33815;48.386;11.738;2022-09-14T10:41:09;4.95;;;2.08;;
48040;SDS011;33815;48.386;11.738;2022-09-14T10:46:58;1.63;;;0.90;;
48040;SDS011;33815;48.386;11.738;2022-09-14T10:52:46;3.20;;;1.05;;
48040;SDS011;33815;48.386;11.738;2022-09-14T10:55:22;0.90;;;0.80;;
48040;SDS011;33815;48.386;11.738;2022-09-14T11:01:04;3.22;;;1.00;;
48040;SDS011;33815;48.386;11.738;2022-09-14T11:06:41;2.83;;;0.90;;
48040;SDS011;33815;48.386;11.738;2022-09-14T11:11:56;3.63;;;1.25;;
48040;SDS011;33815;48.386;11.738;2022-09-14T11:14:58;5.85;;;1.33;;
48040;SDS011;33815;48.386;11.738;2022-09-14T11:18:09;2.35;;;0.77;;
48040;SDS011;33815;48.386;11.738;2022-09-14T11:21:00;2.88;;;0.80;;
48040;SDS011;33815;48.386;11.738;2022-09-14T11:24:11;2.50;;;0.93;;
48040;SDS011;33815;48.386;11.738;2022-09-14T11:26:27;2.17;;;0.98;;
48040;SDS011;33815;48.386;11.738;2022-09-14T11:29:01;1.95;;;1.02;;
48040;SDS011;33815;48.386;11.738;2022-09-14T11:34:23;2.97;;;0.98;;
48040;SDS011;33815;48.386;11.738;2022-09-14T11:36:53;4.50;;;1.60;;
48040;SDS011;33815;48.386;11.738;2022-09-14T11:39:23;4.05;;;1.10;;
48040;SDS011;33815;48.386;11.738;2022-09-14T11:44:34;4.95;;;1.00;;
48040;SDS011;33815;48.386;11.738;2022-09-14T11:47:15;3.83;;;0.90;;
48040;SDS011;33815;48.386;11.738;2022-09-14T11:52:24;3.45;;;1.52;;
48040;SDS011;33815;48.386;11.738;2022-09-14T11:54:51;1.88;;;0.75;;
48040;SDS011;33815;48.386;11.738;2022-09-14T11:57:18;4.63;;;1.27;;
48040;SDS011;33815;48.386;11.738;2022-09-14T11:59:48;2.58;;;0.90;;
48040;SDS011;33815;48.386;11.738;2022-09-14T12:12:37;0.82;;;0.80;;
48040;SDS011;33815;48.386;11.738;2022-09-14T12:15:13;0.70;;;0.70;;
48040;SDS011;33815;48.386;11.738;2022-09-14T12:17:41;1.52;;;0.70;;
48040;SDS011;33815;48.386;11.738;2022-09-14T12:23:03;2.13;;;0.77;;
48040;SDS011;33815;48.386;11.738;2022-09-14T12:25:35;1.90;;;1.27;;
48040;SDS011;33815;48.386;11.738;2022-09-14T12:28:19;2.38;;;1.00;;
48040;SDS011;33815;48.386;11.738;2022-09-14T12:36:03;3.70;;;1.20;;
48040;SDS011;33815;48.386;11.738;2022-09-14T12:38:39;1.85;;;1.30;;
48040;SDS011;33815;48.386;11.738;2022-09-14T12:46:10;3.87;;;1.20;;
48040;SDS011;33815;48.386;11.738;2022-09-14T12:48:57;0.98;;;0.82;;
48040;SDS011;33815;48.386;11.738;2022-09-14T12:54:01;3.75;;;1.05;;
48040;SDS011;33815;48.386;11.738;2022-09-14T13:01:57;1.73;;;0.90;;
48040;SDS011;33815;48.386;11.738;2022-09-14T13:04:36;2.00;;;1.33;;
48040;SDS011;33815;48.386;11.738;2022-09-14T13:07:04;1.73;;;1.30;;
48040;SDS011;33815;48.386;11.738;2022-09-14T13:09:31;4.38;;;1.30;;
48040;SDS011;33815;48.386;11.738;2022-09-14T13:11:59;3.30;;;1.10;;
48040;SDS011;33815;48.386;11.738;2022-09-14T13:14:33;1.75;;;0.90;;
48040;SDS011;33815;48.386;11.738;2022-09-14T13:17:20;1.80;;;1.10;;
48040;SDS011;33815;48.386;11.738;2022-09-14T13:19:55;2.40;;;1.00;;
48040;SDS011;33815;48.386;11.738;2022-09-14T13:22:28;6.93;;;2.47;;
48040;SDS011;33815;48.386;11.738;2022-09-14T13:24:55;2.50;;;0.98;;
48040;SDS011;33815;48.386;11.738;2022-09-14T13:27:23;3.03;;;0.80;;
48040;SDS011;33815;48.386;11.738;2022-09-14T13:30:24;8.88;;;1.25;;
48040;SDS011;33815;48.386;11.738;2022-09-14T13:32:49;1.67;;;1.25;;
48040;SDS011;33815;48.386;11.738;2022-09-14T13:35:19;2.88;;;1.05;;
48040;SDS011;33815;48.386;11.738;2022-09-14T13:37:52;5.50;;;1.40;;
48040;SDS011;33815;48.386;11.738;2022-09-14T13:40:21;1.00;;;0.82;;
48040;SDS011;33815;48.386;11.738;2022-09-14T13:42:48;2.20;;;1.25;;
48040;SDS011;33815;48.386;11.738;2022-09-14T13:45:14;2.47;;;1.10;;
48040;SDS011;33815;48.386;11.738;2022-09-14T13:47:40;1.30;;;0.90;;
48040;SDS011;33815;48.386;11.738;2022-09-14T13:50:05;2.88;;;1.00;;
48040;SDS011;33815;48.386;11.738;2022-09-14T13:52:35;1.83;;;1.10;;
48040;SDS011;33815;48.386;11.738;2022-09-14T13:58:03;1.10;;;0.70;;
48040;SDS011;33815;48.386;11.738;2022-09-14T14:00:53;5.60;;;2.17;;
48040;SDS011;33815;48.386;11.738;2022-09-14T14:03:27;2.90;;;1.10;;
48040;SDS011;33815;48.386;11.738;2022-09-14T14:05:53;1.92;;;1.15;;
48040;SDS011;33815;48.386;11.738;2022-09-14T14:10:52;1.65;;;1.55;;
48040;SDS011;33815;48.386;11.738;2022-09-14T14:13:28;3.35;;;1.00;;
48040;SDS011;33815;48.386;11.738;2022-09-14T14:18:41;2.25;;;1.10;;
48040;SDS011;33815;48.386;11.738;2022-09-14T14:21:14;1.88;;;1.70;;
48040;SDS011;33815;48.386;11.738;2022-09-14T14:23:47;1.73;;;1.17;;
48040;SDS011;33815;48.386;11.738;2022-09-14T14:26:18;2.28;;;1.00;;
48040;SDS011;33815;48.386;11.738;2022-09-14T14:28:48;7.93;;;2.35;;
48040;SDS011;33815;48.386;11.738;2022-09-14T14:31:14;4.23;;;1.57;;
48040;SDS011;33815;48.386;11.738;2022-09-14T14:33:44;2.67;;;1.77;;
48040;SDS011;33815;48.386;11.738;2022-09-14T14:36:11;1.88;;;1.77;;
48040;SDS011;33815;48.386;11.738;2022-09-14T14:38:37;3.70;;;1.25;;
48040;SDS011;33815;48.386;11.738;2022-09-14T14:41:02;2.87;;;1.67;;
48040;SDS011;33815;48.386;11.738;2022-09-14T14:43:28;1.35;;;1.10;;
48040;SDS011;33815;48.386;11.738;2022-09-14T14:45:55;2.55;;;1.27;;
48040;SDS011;33815;48.386;11.738;2022-09-14T14:48:22;1.50;;;0.90;;
48040;SDS011;33815;48.386;11.738;2022-09-14T14:50:48;1.90;;;1.17;;
48040;SDS011;33815;48.386;11.738;2022-09-14T14:53:14;2.10;;;1.15;;
48040;SDS011;33815;48.386;11.738;2022-09-14T14:55:39;1.60;;;1.05;;
48040;SDS011;33815;48.386;11.738;2022-09-14T14:58:06;1.48;;;1.17;;
48040;SDS011;33815;48.386;11.738;2022-09-14T15:00:34;1.33;;;0.98;;
48040;SDS011;33815;48.386;11.738;2022-09-14T15:03:00;2.53;;;1.23;;
48040;SDS011;33815;48.386;11.738;2022-09-14T15:05:26;1.33;;;0.88;;
48040;SDS011;33815;48.386;11.738;2022-09-14T15:07:51;0.80;;;0.68;;
48040;SDS011;33815;48.386;11.738;2022-09-14T15:10:19;1.20;;;0.70;;
48040;SDS011;33815;48.386;11.738;2022-09-14T15:12:46;0.35;;;0.30;;
48040;SDS011;33815;48.386;11.738;2022-09-14T15:15:16;1.33;;;0.50;;
48040;SDS011;33815;48.386;11.738;2022-09-14T15:17:43;0.68;;;0.65;;
48040;SDS011;33815;48.386;11.738;2022-09-14T15:20:09;0.70;;;0.52;;
48040;SDS011;33815;48.386;11.738;2022-09-14T15:22:36;1.85;;;0.60;;
48040;SDS011;33815;48.386;11.738;2022-09-14T15:25:02;1.38;;;0.50;;
48040;SDS011;33815;48.386;11.738;2022-09-14T15:27:28;1.50;;;0.60;;
48040;SDS011;33815;48.386;11.738;2022-09-14T15:29:54;1.48;;;0.82;;
48040;SDS011;33815;48.386;11.738;2022-09-14T15:32:19;1.03;;;0.60;;
48040;SDS011;33815;48.386;11.738;2022-09-14T15:34:44;1.63;;;1.40;;
48040;SDS011;33815;48.386;11.738;2022-09-14T15:37:11;4.65;;;1.90;;
48040;SDS011;33815;48.386;11.738;2022-09-14T15:39:36;2.20;;;0.60;;
48040;SDS011;33815;48.386;11.738;2022-09-14T15:42:01;1.10;;;0.63;;
48040;SDS011;33815;48.386;11.738;2022-09-14T15:44:27;2.38;;;0.60;;
48040;SDS011;33815;48.386;11.738;2022-09-14T15:46:54;0.75;;;0.60;;
48040;SDS011;33815;48.386;11.738;2022-09-14T15:49:22;1.67;;;0.77;;
48040;SDS011;33815;48.386;11.738;2022-09-14T15:51:49;1.42;;;0.63;;
48040;SDS011;33815;48.386;11.738;2022-09-14T15:54:16;1.80;;;0.85;;
48040;SDS011;33815;48.386;11.738;2022-09-14T15:56:47;7.80;;;1.30;;
48040;SDS011;33815;48.386;11.738;2022-09-14T15:59:14;4.43;;;1.10;;
48040;SDS011;33815;48.386;11.738;2022-09-14T16:01:39;0.75;;;0.75;;
48040;SDS011;33815;48.386;11.738;2022-09-14T16:04:05;1.00;;;1.00;;
48040;SDS011;33815;48.386;11.738;2022-09-14T16:06:32;1.88;;;1.00;;
48040;SDS011;33815;48.386;11.738;2022-09-14T16:09:02;2.78;;;1.08;;
48040;SDS011;33815;48.386;11.738;2022-09-14T16:11:28;1.20;;;1.10;;
48040;SDS011;33815;48.386;11.738;2022-09-14T16:13:55;2.95;;;1.48;;
48040;SDS011;33815;48.386;11.738;2022-09-14T16:16:20;2.05;;;1.17;;
48040;SDS011;33815;48.386;11.738;2022-09-14T16:18:46;1.10;;;1.00;;
48040;SDS011;33815;48.386;11.738;2022-09-14T16:21:14;3.08;;;1.65;;
48040;SDS011;33815;48.386;11.738;2022-09-14T16:23:41;1.50;;;1.40;;